Time;durP1;ratioP1;P1;durP2;ratioP2;P2;SDS_P1;SDS_P2;PMS_P1;PMS_P2;Temp;Humidity;BMP_temperature;BMP_pressure;BME280_temperature;BME280_humidity;BME280_pressure;Samples;Min_cycle;Max_cycle;Signal;HPM_P1;HPM_P2
2022/01/16 00:01:14;;;;;;;34.38;19.33;;;14.80;75.30;;;;;;4091818;28;20094;-67
2022/01/16 00:06:18;;;;;;;36.47;20.88;;;14.80;75.50;;;;;;4093582;28;20051;-68
2022/01/16 00:08:41;;;;;;;36.13;20.38;;;14.70;75.60;;;;;;4088383;28;20089;-68
2022/01/16 00:11:04;;;;;;;35.05;18.13;;;14.70;75.70;;;;;;4078467;28;20114;-68
2022/01/16 00:13:28;;;;;;;39.53;20.80;;;14.70;76.00;;;;;;4078337;28;20056;-67
2022/01/16 00:15:52;;;;;;;34.17;20.35;;;14.70;75.70;;;;;;4090690;28;20510;-69
2022/01/16 00:18:21;;;;;;;34.85;19.80;;;14.70;75.70;;;;;;4091988;28;20169;-69
2022/01/16 00:20:45;;;;;;;32.97;19.27;;;14.70;75.40;;;;;;4093354;28;20447;-69
2022/01/16 00:23:10;;;;;;;38.15;21.55;;;14.60;74.80;;;;;;4082438;28;20389;-69
2022/01/16 00:25:33;;;;;;;42.67;21.85;;;14.60;75.20;;;;;;4077455;28;20047;-69
2022/01/16 00:27:56;;;;;;;35.42;20.40;;;14.60;76.30;;;;;;4076987;28;20488;-69
2022/01/16 00:30:20;;;;;;;38.92;22.30;;;14.70;77.20;;;;;;4078355;28;20459;-70
2022/01/16 00:32:43;;;;;;;40.13;21.63;;;14.70;77.00;;;;;;4079155;28;20488;-68
2022/01/16 00:35:07;;;;;;;39.70;21.48;;;14.70;76.70;;;;;;4082319;28;20052;-68
2022/01/16 00:37:30;;;;;;;40.95;21.58;;;14.80;76.50;;;;;;4096179;28;20117;-68
2022/01/16 00:39:53;;;;;;;39.95;22.65;;;14.80;76.40;;;;;;4096877;28;20106;-68
2022/01/16 00:42:16;;;;;;;39.92;21.55;;;14.90;76.20;;;;;;4096779;28;20055;-67
2022/01/16 00:44:39;;;;;;;38.92;20.73;;;14.90;76.10;;;;;;4096906;28;20083;-68
2022/01/16 00:47:04;;;;;;;38.83;21.00;;;14.90;76.10;;;;;;4096813;28;20108;-68
2022/01/16 00:49:27;;;;;;;39.60;20.42;;;14.90;75.80;;;;;;4096110;28;20477;-67
2022/01/16 00:51:50;;;;;;;42.83;21.25;;;14.90;75.70;;;;;;4082064;28;20055;-67
2022/01/16 00:54:14;;;;;;;38.90;20.38;;;14.90;75.80;;;;;;4080805;29;20107;-67
2022/01/16 00:56:36;;;;;;;37.65;19.13;;;14.90;75.60;;;;;;4090154;28;21024;-67
2022/01/16 00:58:59;;;;;;;40.50;21.52;;;14.90;75.70;;;;;;4096954;28;20491;-68
2022/01/16 01:01:22;;;;;;;39.30;21.05;;;14.90;75.80;;;;;;4086121;28;20150;-67
2022/01/16 01:03:46;;;;;;;36.60;20.67;;;14.90;75.70;;;;;;4080952;28;20397;-67
2022/01/16 01:06:10;;;;;;;39.97;21.08;;;14.90;75.60;;;;;;4081079;28;20047;-67
2022/01/16 01:08:34;;;;;;;37.25;20.33;;;14.90;75.40;;;;;;4080954;28;20059;-67
2022/01/16 01:10:58;;;;;;;35.50;20.88;;;15.00;75.30;;;;;;4080832;29;20102;-68
2022/01/16 01:13:24;;;;;;;41.22;22.45;;;15.00;75.20;;;;;;4080857;29;20063;-68
2022/01/16 01:15:49;;;;;;;44.22;22.15;;;15.00;75.10;;;;;;4093737;28;20122;-68
2022/01/16 01:18:13;;;;;;;38.35;21.08;;;15.00;75.80;;;;;;4096291;28;20446;-69
2022/01/16 01:20:40;;;;;;;38.13;21.75;;;15.10;74.50;;;;;;4096661;28;20047;-69
2022/01/16 01:23:03;;;;;;;34.92;18.92;;;15.10;74.20;;;;;;4096143;28;20077;-69
2022/01/16 01:25:26;;;;;;;31.30;19.70;;;15.10;74.30;;;;;;4095211;28;20549;-69
2022/01/16 01:27:49;;;;;;;32.72;18.40;;;15.10;74.30;;;;;;4096599;28;20055;-69
2022/01/16 01:30:14;;;;;;;36.58;20.48;;;15.10;74.20;;;;;;4080276;28;20056;-69
2022/01/16 01:32:38;;;;;;;31.65;18.05;;;15.10;73.90;;;;;;4080545;28;20098;-69
2022/01/16 01:35:02;;;;;;;33.10;18.55;;;15.00;74.00;;;;;;4080528;28;20440;-69
2022/01/16 01:37:26;;;;;;;34.20;19.30;;;15.00;74.10;;;;;;4080757;28;20044;-69
2022/01/16 01:39:50;;;;;;;31.50;18.08;;;15.00;74.30;;;;;;4080508;28;20099;-69
2022/01/16 01:42:14;;;;;;;29.85;18.40;;;15.00;74.60;;;;;;4082306;28;20099;-69
2022/01/16 01:52:54;;;;;;;36.35;21.75;;;15.20;73.30;;;;;;4089751;28;20555;-70
2022/01/16 01:55:17;;;;;;;36.25;21.55;;;15.30;73.40;;;;;;4080192;28;20052;-69
2022/01/16 01:57:40;;;;;;;37.50;21.25;;;15.30;72.90;;;;;;4080103;28;20079;-69
2022/01/16 02:00:05;;;;;;;38.83;21.40;;;15.30;72.50;;;;;;4081325;28;20055;-69
2022/01/16 02:02:35;;;;;;;39.10;21.60;;;15.40;72.40;;;;;;4079886;29;20052;-69
2022/01/16 02:04:58;;;;;;;38.22;22.80;;;15.30;72.30;;;;;;4080397;29;20496;-69
2022/01/16 02:07:21;;;;;;;42.85;23.20;;;15.30;72.20;;;;;;4081092;28;20059;-69
2022/01/16 02:09:45;;;;;;;40.15;23.85;;;15.30;72.20;;;;;;4080151;28;20083;-69
2022/01/16 02:12:09;;;;;;;41.95;22.17;;;15.30;72.50;;;;;;4080049;28;20126;-68
2022/01/16 02:14:44;;;;;;;43.13;23.60;;;15.30;72.50;;;;;;4080196;28;20122;-67
2022/01/16 02:28:03;;;;;;;47.15;25.17;;;15.30;72.70;;;;;;4094912;28;19926;-67
2022/01/16 02:33:24;;;;;;;52.53;27.45;;;15.30;72.70;;;;;;4093936;28;20051;-68
2022/01/16 02:35:48;;;;;;;42.45;22.73;;;15.40;72.50;;;;;;4079160;28;20111;-68
2022/01/16 02:38:13;;;;;;;46.90;24.33;;;15.40;72.20;;;;;;4079301;28;20051;-67
2022/01/16 02:40:39;;;;;;;48.67;26.40;;;15.40;72.10;;;;;;4079908;28;20048;-67
2022/01/16 02:43:03;;;;;;;50.78;26.15;;;15.50;72.10;;;;;;4079156;28;20051;-68
2022/01/16 02:45:31;;;;;;;49.25;26.40;;;15.40;72.00;;;;;;4079295;28;20070;-68
2022/01/16 02:47:54;;;;;;;50.15;26.10;;;15.40;71.90;;;;;;4082943;28;20122;-68
2022/01/16 02:50:18;;;;;;;48.10;26.83;;;15.40;72.00;;;;;;4079013;28;20102;-67
2022/01/16 02:52:43;;;;;;;48.00;25.08;;;15.50;72.10;;;;;;4080672;28;20044;-67
2022/01/16 02:55:13;;;;;;;45.63;24.83;;;15.50;72.00;;;;;;4094144;28;20051;-67
2022/01/16 02:57:36;;;;;;;53.05;27.33;;;15.50;71.90;;;;;;4095092;28;20043;-67
2022/01/16 02:59:59;;;;;;;51.30;26.85;;;15.50;71.80;;;;;;4095008;28;20055;-67
2022/01/16 03:02:25;;;;;;;54.03;27.90;;;15.50;72.00;;;;;;4105043;28;20058;-67
2022/01/16 03:04:48;;;;;;;47.30;25.80;;;15.50;71.90;;;;;;4084723;28;20059;-68
2022/01/16 03:07:12;;;;;;;47.47;26.80;;;15.50;71.60;;;;;;4078364;28;20055;-67
2022/01/16 03:09:51;;;;;;;51.80;27.60;;;15.50;71.60;;;;;;4078986;28;20369;-68
2022/01/16 03:12:16;;;;;;;49.60;27.70;;;15.50;71.70;;;;;;4078887;28;20492;-68
2022/01/16 03:14:39;;;;;;;47.03;25.30;;;15.50;71.80;;;;;;4094802;28;20129;-67
2022/01/16 03:17:02;;;;;;;49.40;26.05;;;15.50;71.80;;;;;;4081745;28;20047;-68
2022/01/16 03:22:09;;;;;;;50.53;26.52;;;15.50;71.70;;;;;;4072321;28;20051;-68
2022/01/16 03:24:34;;;;;;;52.28;27.27;;;15.50;71.80;;;;;;4087508;28;20475;-68
2022/01/16 03:26:59;;;;;;;53.40;28.17;;;15.60;71.60;;;;;;4091920;28;20055;-67
2022/01/16 03:29:24;;;;;;;54.63;28.27;;;15.50;71.70;;;;;;4079276;28;20063;-68
2022/01/16 03:31:47;;;;;;;54.63;29.83;;;15.50;71.70;;;;;;4094708;28;20098;-68
2022/01/16 03:34:10;;;;;;;51.38;26.60;;;15.50;71.50;;;;;;4094579;28;20102;-68
2022/01/16 03:36:33;;;;;;;55.00;29.88;;;15.50;71.50;;;;;;4094391;28;20059;-68
2022/01/16 03:38:56;;;;;;;49.25;27.67;;;15.50;71.30;;;;;;4094755;28;20098;-68
2022/01/16 03:41:19;;;;;;;50.70;26.25;;;15.50;71.40;;;;;;4094457;28;20114;-68
2022/01/16 03:43:42;;;;;;;56.83;28.98;;;15.50;71.50;;;;;;4090473;28;21911;-67
2022/01/16 03:46:07;;;;;;;59.40;29.48;;;15.50;71.50;;;;;;4078503;29;20052;-68
2022/01/16 03:48:30;;;;;;;54.83;28.42;;;15.50;71.50;;;;;;4078620;28;20051;-68
2022/01/16 03:50:53;;;;;;;56.83;30.27;;;15.50;71.50;;;;;;4078697;28;20091;-68
2022/01/16 03:53:16;;;;;;;61.63;30.05;;;15.50;71.90;;;;;;4091231;28;20055;-68
2022/01/16 03:55:39;;;;;;;58.38;29.92;;;15.50;71.70;;;;;;4094179;28;20047;-68
2022/01/16 03:58:03;;;;;;;63.22;30.05;;;15.50;71.60;;;;;;4085351;28;20056;-68
2022/01/16 04:00:26;;;;;;;60.78;29.42;;;15.50;71.40;;;;;;4078119;28;20047;-68
2022/01/16 04:02:51;;;;;;;56.15;29.60;;;15.60;71.30;;;;;;4078348;29;20417;-67
2022/01/16 04:05:14;;;;;;;57.88;28.98;;;15.60;71.50;;;;;;4090516;28;20404;-67
2022/01/16 04:07:37;;;;;;;55.08;28.83;;;15.60;71.20;;;;;;4078007;29;20048;-68
2022/01/16 04:10:00;;;;;;;57.88;28.02;;;15.70;71.10;;;;;;4077712;29;20051;-68
2022/01/16 04:12:24;;;;;;;60.17;31.35;;;15.70;70.90;;;;;;4085607;28;20643;-68
2022/01/16 04:17:27;;;;;;;58.33;30.17;;;15.90;70.00;;;;;;4092669;28;20106;-68
2022/01/16 04:19:53;;;;;;;57.58;28.25;;;16.00;69.50;;;;;;4093444;28;20055;-68
2022/01/16 04:22:17;;;;;;;58.35;30.35;;;16.00;69.10;;;;;;4094093;28;20047;-69
2022/01/16 04:24:40;;;;;;;55.40;29.50;;;16.00;69.10;;;;;;4093643;28;20051;-68
2022/01/16 04:27:04;;;;;;;60.03;30.45;;;16.00;69.00;;;;;;4083959;28;20055;-68
2022/01/16 04:29:27;;;;;;;57.47;27.95;;;16.00;69.00;;;;;;4078719;29;20047;-68
2022/01/16 04:31:50;;;;;;;55.70;28.17;;;16.00;70.00;;;;;;4078137;29;20448;-68
2022/01/16 04:34:13;;;;;;;63.30;30.50;;;16.00;69.10;;;;;;4078471;29;20052;-68
2022/01/16 04:36:38;;;;;;;57.67;30.75;;;16.00;69.10;;;;;;4078682;29;20476;-68
2022/01/16 04:39:01;;;;;;;58.85;29.92;;;16.00;69.90;;;;;;4077826;29;20099;-68
2022/01/16 04:44:05;;;;;;;63.42;30.60;;;15.90;69.50;;;;;;4090493;28;20059;-68
2022/01/16 04:46:30;;;;;;;60.50;30.35;;;15.90;69.60;;;;;;4078167;29;20106;-68
2022/01/16 04:48:54;;;;;;;60.80;31.30;;;15.90;69.60;;;;;;4077909;29;20060;-68
2022/01/16 04:51:19;;;;;;;63.50;30.50;;;15.90;69.50;;;;;;4078142;29;20060;-68
2022/01/16 04:53:44;;;;;;;58.53;30.50;;;15.90;69.50;;;;;;4078066;28;20052;-68
2022/01/16 04:56:08;;;;;;;59.30;28.52;;;15.90;70.40;;;;;;4077983;28;20551;-68
2022/01/16 04:58:31;;;;;;;59.67;29.65;;;15.90;69.60;;;;;;4080736;28;20055;-68
2022/01/16 05:00:55;;;;;;;61.42;29.30;;;15.90;69.50;;;;;;4078918;28;20496;-68
2022/01/16 05:03:18;;;;;;;65.05;30.25;;;15.90;69.40;;;;;;4078196;29;20099;-68
2022/01/16 05:05:41;;;;;;;64.15;29.80;;;15.90;69.50;;;;;;4078032;29;20055;-68
2022/01/16 05:08:05;;;;;;;61.40;31.92;;;15.90;69.40;;;;;;4078020;29;20051;-68
2022/01/16 05:10:29;;;;;;;62.22;29.50;;;16.00;69.10;;;;;;4078040;29;20051;-67
2022/01/16 05:12:53;;;;;;;62.45;31.20;;;16.00;68.80;;;;;;4078136;29;20103;-68
2022/01/16 05:17:56;;;;;;;63.08;29.70;;;16.00;68.50;;;;;;4077155;28;20107;-67
2022/01/16 05:20:19;;;;;;;65.15;30.73;;;16.00;68.70;;;;;;4080287;28;20056;-67
2022/01/16 05:22:42;;;;;;;64.57;30.67;;;16.00;68.70;;;;;;4080492;28;20051;-66
2022/01/16 05:25:08;;;;;;;60.80;28.02;;;16.10;68.60;;;;;;4080389;28;20571;-66
2022/01/16 05:27:32;;;;;;;63.10;30.58;;;16.10;68.60;;;;;;4061396;29;20056;-68
2022/01/16 05:29:55;;;;;;;65.20;30.23;;;16.00;68.50;;;;;;4048936;29;20049;-67
2022/01/16 05:32:18;;;;;;;61.70;28.25;;;16.00;68.70;;;;;;4049233;29;20056;-67
2022/01/16 05:34:41;;;;;;;60.47;28.67;;;16.00;68.80;;;;;;4048261;29;20052;-67
2022/01/16 05:37:05;;;;;;;61.35;29.67;;;16.00;68.90;;;;;;4048755;29;20052;-68
2022/01/16 05:39:28;;;;;;;54.08;26.30;;;16.00;68.70;;;;;;4060646;29;20763;-67
2022/01/16 05:41:51;;;;;;;62.95;30.85;;;16.00;69.60;;;;;;4049863;29;20060;-67
2022/01/16 05:44:15;;;;;;;63.95;30.35;;;16.00;68.80;;;;;;4064160;29;20492;-68
2022/01/16 05:46:38;;;;;;;61.10;27.70;;;15.90;68.80;;;;;;4064674;29;20060;-68
2022/01/16 05:49:01;;;;;;;56.53;26.02;;;15.90;68.90;;;;;;4064268;29;20051;-68
2022/01/16 05:51:25;;;;;;;53.40;26.65;;;15.90;69.20;;;;;;4064249;29;20060;-68
2022/01/16 05:53:50;;;;;;;65.55;30.13;;;15.90;69.30;;;;;;4064447;29;20097;-68
2022/01/16 05:56:13;;;;;;;65.65;27.85;;;15.90;69.10;;;;;;4063927;29;20048;-68
2022/01/16 05:58:36;;;;;;;62.50;29.30;;;16.00;69.00;;;;;;4063654;29;20056;-68
2022/01/16 06:01:01;;;;;;;62.05;29.67;;;16.00;68.80;;;;;;4048551;29;20057;-68
2022/01/16 06:03:24;;;;;;;67.25;28.88;;;16.00;69.70;;;;;;4055494;29;20064;-68
2022/01/16 06:05:47;;;;;;;61.45;25.98;;;16.00;68.80;;;;;;4064539;29;20056;-68
2022/01/16 06:08:12;;;;;;;58.60;28.25;;;16.00;68.60;;;;;;4064489;29;20111;-68
2022/01/16 06:10:35;;;;;;;65.47;29.20;;;16.10;68.40;;;;;;4063957;29;20048;-68
2022/01/16 06:12:58;;;;;;;70.22;30.00;;;16.10;68.20;;;;;;4064463;29;20044;-68
2022/01/16 06:15:22;;;;;;;65.07;29.77;;;16.10;68.10;;;;;;4051410;29;20449;-68
2022/01/16 06:17:47;;;;;;;67.03;29.20;;;16.10;68.20;;;;;;4064330;29;20099;-68
2022/01/16 06:20:10;;;;;;;63.25;27.13;;;16.10;68.20;;;;;;4064343;29;20083;-68
2022/01/16 06:22:33;;;;;;;65.00;29.95;;;16.00;68.30;;;;;;4063968;29;20386;-68
2022/01/16 06:25:02;;;;;;;65.43;29.55;;;16.00;68.60;;;;;;4063281;29;20095;-68
2022/01/16 06:27:25;;;;;;;66.20;30.52;;;16.00;69.60;;;;;;4079085;29;20512;-68
2022/01/16 06:29:48;;;;;;;69.45;31.25;;;16.00;68.70;;;;;;4081417;28;20047;-69
2022/01/16 06:32:11;;;;;;;65.38;28.55;;;16.00;68.60;;;;;;4094852;28;20047;-69
2022/01/16 06:34:36;;;;;;;62.08;29.00;;;16.00;68.50;;;;;;4095030;28;20102;-68
2022/01/16 06:36:59;;;;;;;61.85;30.58;;;16.00;68.50;;;;;;4094994;28;20106;-69
2022/01/16 06:39:24;;;;;;;68.13;30.05;;;16.00;68.40;;;;;;4095147;28;20043;-69
2022/01/16 06:41:47;;;;;;;62.80;30.02;;;16.00;68.30;;;;;;4089721;28;20051;-69
2022/01/16 06:44:30;;;;;;;66.88;30.40;;;16.00;68.40;;;;;;4078799;29;20056;-69
2022/01/16 06:46:53;;;;;;;60.45;27.17;;;15.90;68.60;;;;;;4092171;28;20450;-69
2022/01/16 06:49:16;;;;;;;61.92;28.85;;;15.90;68.80;;;;;;4093456;28;20098;-69
2022/01/16 06:51:41;;;;;;;56.88;28.40;;;15.80;69.00;;;;;;4095272;28;20529;-70
2022/01/16 06:54:04;;;;;;;60.20;27.17;;;15.90;69.00;;;;;;4095074;28;20082;-68
2022/01/16 06:56:29;;;;;;;60.08;29.40;;;16.00;68.70;;;;;;4094898;28;20059;-69
2022/01/16 06:58:52;;;;;;;62.53;30.08;;;16.10;69.20;;;;;;4089856;28;20102;-68
2022/01/16 07:01:29;;;;;;;63.40;30.20;;;16.10;68.00;;;;;;4078589;29;20106;-68
2022/01/16 07:03:57;;;;;;;64.90;28.73;;;16.20;67.80;;;;;;4079601;29;20067;-69
2022/01/16 07:06:19;;;;;;;59.85;29.42;;;16.20;67.70;;;;;;4079241;29;20043;-69
2022/01/16 07:08:44;;;;;;;64.18;28.77;;;16.10;67.80;;;;;;4079408;29;20412;-68
2022/01/16 07:11:07;;;;;;;61.00;29.00;;;16.10;68.00;;;;;;4094986;28;20777;-67
2022/01/16 07:13:30;;;;;;;63.15;30.33;;;16.10;68.10;;;;;;4093529;28;20459;-68
2022/01/16 07:15:53;;;;;;;62.78;28.88;;;16.10;68.00;;;;;;4095255;28;20055;-68
2022/01/16 07:18:16;;;;;;;64.45;30.50;;;16.10;68.00;;;;;;4094767;28;20435;-68
2022/01/16 07:20:39;;;;;;;60.17;30.92;;;16.10;68.00;;;;;;4094653;28;20050;-68
2022/01/16 07:23:02;;;;;;;65.25;29.65;;;16.10;68.00;;;;;;4094601;28;20097;-69
2022/01/16 07:25:26;;;;;;;65.25;30.80;;;16.10;68.40;;;;;;4094375;28;20757;-68
2022/01/16 07:27:49;;;;;;;66.95;29.55;;;16.10;68.70;;;;;;4093326;28;20047;-68
2022/01/16 07:30:13;;;;;;;64.32;29.40;;;16.10;68.90;;;;;;4078847;28;20047;-68
2022/01/16 07:32:36;;;;;;;62.22;30.50;;;16.00;69.10;;;;;;4083525;28;20047;-68
2022/01/16 07:34:59;;;;;;;63.10;30.52;;;16.00;69.20;;;;;;4094777;28;20074;-68
2022/01/16 07:37:22;;;;;;;66.10;31.70;;;16.10;68.90;;;;;;4094543;28;20051;-62
2022/01/16 07:39:45;;;;;;;64.28;31.17;;;16.20;68.50;;;;;;4094367;28;20054;-63
2022/01/16 07:42:10;;;;;;;65.00;31.13;;;16.20;68.20;;;;;;4093890;28;20047;-63
2022/01/16 07:44:33;;;;;;;59.30;30.85;;;16.30;68.30;;;;;;4078088;28;20569;-63
2022/01/16 07:46:56;;;;;;;60.28;30.20;;;16.30;68.30;;;;;;4093721;28;20110;-63
2022/01/16 07:49:20;;;;;;;68.43;30.98;;;16.30;68.10;;;;;;4093614;28;20054;-63
2022/01/16 07:51:43;;;;;;;64.05;31.60;;;16.30;68.10;;;;;;4094099;28;20055;-63
2022/01/16 07:54:06;;;;;;;66.65;33.47;;;16.30;68.10;;;;;;4094290;28;20076;-63
2022/01/16 07:56:29;;;;;;;59.75;30.42;;;16.20;68.10;;;;;;4093543;28;20106;-63
2022/01/16 07:58:54;;;;;;;62.00;30.02;;;16.20;68.30;;;;;;4078534;28;20425;-62
2022/01/16 08:01:17;;;;;;;58.83;27.20;;;16.20;68.50;;;;;;4092547;28;20102;-63
2022/01/16 08:03:40;;;;;;;63.13;29.45;;;16.20;68.50;;;;;;4094254;28;20051;-62
2022/01/16 08:06:03;;;;;;;56.60;29.45;;;16.20;68.60;;;;;;4083945;28;20110;-62
2022/01/16 08:08:26;;;;;;;59.75;28.95;;;16.20;68.50;;;;;;4078465;29;20055;-63
2022/01/16 08:10:49;;;;;;;54.50;28.50;;;16.20;68.50;;;;;;4078352;29;20122;-63
2022/01/16 08:13:12;;;;;;;59.92;30.00;;;16.10;68.40;;;;;;4079510;28;20055;-63
2022/01/16 08:15:37;;;;;;;50.00;25.77;;;16.10;68.40;;;;;;4078461;28;20098;-62
2022/01/16 08:18:00;;;;;;;53.60;26.95;;;16.00;68.60;;;;;;4091037;28;20077;-62
2022/01/16 08:20:23;;;;;;;66.68;26.20;;;16.00;69.10;;;;;;4093856;28;20059;-61
2022/01/16 08:22:47;;;;;;;60.47;29.88;;;16.00;69.60;;;;;;4094121;28;20051;-61
2022/01/16 08:25:10;;;;;;;58.58;27.17;;;16.00;69.20;;;;;;4089502;28;20167;-62
2022/01/16 08:27:33;;;;;;;56.22;26.17;;;16.00;69.00;;;;;;4077995;28;20056;-61
2022/01/16 08:29:58;;;;;;;53.70;28.90;;;16.10;68.40;;;;;;4078341;28;20063;-62
2022/01/16 08:32:23;;;;;;;55.05;30.00;;;16.10;68.70;;;;;;4078463;28;20060;-61
2022/01/16 08:34:45;;;;;;;51.25;27.67;;;16.10;67.50;;;;;;4078104;28;20099;-62
2022/01/16 08:37:09;;;;;;;51.85;27.70;;;16.10;67.50;;;;;;4078119;28;20111;-62
2022/01/16 08:39:32;;;;;;;49.53;24.13;;;16.10;67.40;;;;;;4079090;28;20099;-61
2022/01/16 08:41:56;;;;;;;44.30;23.23;;;16.00;67.40;;;;;;4078119;28;20827;-61
2022/01/16 08:44:19;;;;;;;50.50;25.95;;;16.00;67.30;;;;;;4077997;28;20074;-62
2022/01/16 08:46:42;;;;;;;49.08;24.75;;;16.10;67.20;;;;;;4078233;28;20118;-62
2022/01/16 08:49:07;;;;;;;48.42;26.90;;;16.10;66.80;;;;;;4078019;29;20488;-62
2022/01/16 08:51:30;;;;;;;43.08;23.48;;;16.10;66.30;;;;;;4077898;29;20056;-62
2022/01/16 08:53:53;;;;;;;44.97;25.35;;;16.20;66.10;;;;;;4078993;28;20143;-62
2022/01/16 08:56:16;;;;;;;46.72;26.23;;;16.20;65.90;;;;;;4080819;28;20547;-61
2022/01/16 08:58:39;;;;;;;50.92;25.80;;;16.10;66.00;;;;;;4091304;28;20106;-62
2022/01/16 09:01:02;;;;;;;50.72;25.00;;;16.10;66.00;;;;;;4086372;28;20107;-62
2022/01/16 09:03:26;;;;;;;42.72;26.17;;;16.10;66.00;;;;;;4081036;29;20500;-62
2022/01/16 09:05:51;;;;;;;44.28;24.70;;;16.10;66.20;;;;;;4083835;28;20083;-62
2022/01/16 09:08:18;;;;;;;48.00;25.83;;;16.10;66.30;;;;;;4096071;28;20562;-62
2022/01/16 09:10:41;;;;;;;43.10;25.70;;;16.10;66.40;;;;;;4096207;28;20484;-62
2022/01/16 09:13:05;;;;;;;46.42;25.85;;;16.20;66.20;;;;;;4096206;28;20780;-62
2022/01/16 09:15:28;;;;;;;45.70;24.30;;;16.20;65.90;;;;;;4096728;28;20055;-62
2022/01/16 09:17:51;;;;;;;44.47;23.17;;;16.20;65.50;;;;;;4096610;28;20103;-62
2022/01/16 09:20:14;;;;;;;42.67;22.65;;;16.20;65.60;;;;;;4097801;28;20507;-63
2022/01/16 09:22:40;;;;;;;44.55;20.58;;;16.20;65.50;;;;;;4086516;28;20560;-63
2022/01/16 09:25:03;;;;;;;46.47;25.52;;;16.20;65.40;;;;;;4096270;28;20039;-62
2022/01/16 09:27:26;;;;;;;40.45;24.35;;;16.20;65.30;;;;;;4095131;28;20086;-62
2022/01/16 09:29:50;;;;;;;39.47;23.13;;;16.10;65.30;;;;;;4096306;28;20480;-62
2022/01/16 09:32:14;;;;;;;40.13;21.52;;;16.10;65.60;;;;;;4096288;28;20039;-62
2022/01/16 09:34:37;;;;;;;40.08;21.98;;;16.10;65.60;;;;;;4096316;28;20071;-62
2022/01/16 09:37:02;;;;;;;36.97;22.02;;;16.10;65.40;;;;;;4096466;28;20043;-62
2022/01/16 09:39:26;;;;;;;35.83;20.02;;;16.20;65.30;;;;;;4096239;28;20087;-62
2022/01/16 09:41:49;;;;;;;44.15;23.63;;;16.40;64.90;;;;;;4081711;28;20103;-62
2022/01/16 09:44:12;;;;;;;36.22;22.17;;;16.90;63.30;;;;;;4079467;28;20556;-63
2022/01/16 09:46:36;;;;;;;40.85;22.33;;;17.40;61.30;;;;;;4080651;28;20055;-63
2022/01/16 09:48:59;;;;;;;32.13;20.38;;;18.00;59.30;;;;;;4090939;28;20051;-63
2022/01/16 09:51:24;;;;;;;35.40;20.42;;;18.60;57.60;;;;;;4080285;28;20127;-63
2022/01/16 09:53:48;;;;;;;34.58;22.20;;;19.30;56.00;;;;;;4091272;28;20055;-62
2022/01/16 09:56:12;;;;;;;32.63;19.67;;;19.90;54.40;;;;;;4095757;28;20043;-63
2022/01/16 09:58:37;;;;;;;31.40;20.17;;;20.40;53.00;;;;;;4096332;28;20097;-63
2022/01/16 10:00:59;;;;;;;28.42;18.27;;;20.80;51.90;;;;;;4095666;28;20055;-63
2022/01/16 10:03:39;;;;;;;30.55;19.17;;;21.00;51.20;;;;;;4096107;28;20110;-63
2022/01/16 10:06:10;;;;;;;32.13;19.02;;;21.20;50.80;;;;;;4086003;28;20044;-61
2022/01/16 10:08:33;;;;;;;27.42;17.63;;;21.10;50.80;;;;;;4080079;28;20082;-63
2022/01/16 10:10:58;;;;;;;27.77;18.50;;;21.00;51.20;;;;;;4092605;28;20446;-62
2022/01/16 10:13:33;;;;;;;26.20;17.33;;;20.70;51.60;;;;;;4085010;28;20055;-61
2022/01/16 10:15:59;;;;;;;27.98;18.60;;;20.40;52.20;;;;;;4091325;28;20582;-61
2022/01/16 10:18:34;;;;;;;28.15;17.10;;;20.20;52.90;;;;;;4079231;28;20122;-63
2022/01/16 10:20:57;;;;;;;27.13;16.42;;;19.90;53.70;;;;;;4096618;28;20055;-63
2022/01/16 10:23:21;;;;;;;28.55;17.25;;;19.70;54.20;;;;;;4098964;28;20059;-63
2022/01/16 10:25:47;;;;;;;28.88;17.85;;;19.60;54.40;;;;;;4110432;28;20094;-63
2022/01/16 10:28:14;;;;;;;31.40;18.77;;;19.60;54.60;;;;;;4092751;28;20076;-63
2022/01/16 10:30:43;;;;;;;26.30;17.63;;;19.60;54.50;;;;;;4096778;28;20043;-63
2022/01/16 10:33:12;;;;;;;31.13;17.77;;;19.60;54.40;;;;;;4093415;28;20103;-63
2022/01/16 10:35:38;;;;;;;30.27;18.35;;;19.60;54.30;;;;;;4095710;28;20109;-63
2022/01/16 10:38:01;;;;;;;25.52;17.52;;;19.60;54.30;;;;;;4103676;28;20102;-62
2022/01/16 10:40:31;;;;;;;26.20;17.48;;;19.60;54.40;;;;;;4111171;28;20063;-63
2022/01/16 10:42:58;;;;;;;28.83;17.45;;;19.60;54.60;;;;;;4111279;28;20054;-63
2022/01/16 10:45:24;;;;;;;24.08;16.50;;;19.60;54.60;;;;;;4111266;28;20058;-63
2022/01/16 10:47:53;;;;;;;28.10;16.15;;;19.70;54.60;;;;;;4083828;28;20051;-63
2022/01/16 10:50:19;;;;;;;30.80;16.67;;;19.70;54.60;;;;;;4094115;28;20487;-63
2022/01/16 10:52:52;;;;;;;24.13;14.65;;;19.70;54.60;;;;;;4095044;28;20054;-63
2022/01/16 10:55:16;;;;;;;24.10;14.57;;;19.70;54.60;;;;;;4106848;28;20372;-63
2022/01/16 10:57:40;;;;;;;23.10;14.40;;;19.70;54.60;;;;;;4110884;28;20098;-62
2022/01/16 11:00:15;;;;;;;21.33;13.95;;;19.70;54.60;;;;;;4111319;28;20050;-62
2022/01/16 11:02:39;;;;;;;24.70;14.35;;;19.70;53.90;;;;;;4111103;28;20058;-62
2022/01/16 11:05:09;;;;;;;24.05;13.35;;;19.70;54.30;;;;;;4106848;28;20139;-62
2022/01/16 11:07:32;;;;;;;20.83;13.25;;;19.70;54.30;;;;;;4094588;28;20491;-63
2022/01/16 11:09:55;;;;;;;21.83;12.65;;;19.70;54.40;;;;;;4093335;28;20083;-63
2022/01/16 11:12:18;;;;;;;20.77;13.43;;;19.70;54.40;;;;;;4095082;28;20431;-63
2022/01/16 11:14:41;;;;;;;24.75;11.90;;;19.70;54.30;;;;;;4095139;28;20047;-63
2022/01/16 11:17:05;;;;;;;22.58;12.07;;;19.70;54.40;;;;;;4083499;28;20063;-63
2022/01/16 11:19:31;;;;;;;20.75;13.70;;;19.70;54.30;;;;;;4080141;28;20445;-63
2022/01/16 11:22:03;;;;;;;24.45;13.38;;;19.70;54.20;;;;;;4078618;28;20047;-63
2022/01/16 11:24:35;;;;;;;22.73;13.10;;;19.80;54.20;;;;;;4078419;28;20114;-63
2022/01/16 11:26:59;;;;;;;;;;;19.80;54.10;;;;;;4082997;28;20138;-63
2022/01/16 11:29:22;;;;;;;17.55;9.38;;;19.80;54.00;;;;;;4101762;28;20437;-63
2022/01/16 11:31:49;;;;;;;22.45;12.75;;;19.70;54.30;;;;;;4092419;28;20055;-62
2022/01/16 11:34:12;;;;;;;19.08;11.85;;;19.70;54.50;;;;;;4078625;29;20059;-63
2022/01/16 11:36:35;;;;;;;24.20;12.20;;;19.80;54.40;;;;;;4078148;29;20102;-63
2022/01/16 11:39:01;;;;;;;18.42;11.13;;;19.80;54.20;;;;;;4092036;28;20050;-63
2022/01/16 11:41:31;;;;;;;17.73;11.07;;;19.80;54.00;;;;;;4078918;28;20569;-63
2022/01/16 11:43:56;;;;;;;19.98;11.50;;;19.80;53.80;;;;;;4090302;28;20055;-63
2022/01/16 11:46:23;;;;;;;23.33;11.27;;;19.90;53.80;;;;;;4094178;28;20043;-64
2022/01/16 11:48:50;;;;;;;19.60;11.32;;;19.90;53.60;;;;;;4094622;28;20051;-63
2022/01/16 11:52:02;;;;;;;19.65;11.77;;;19.90;53.60;;;;;;4093179;28;20058;-70
2022/01/16 11:54:33;;;;;;;20.63;11.02;;;20.00;53.70;;;;;;4088496;28;20044;-63
2022/01/16 11:56:59;;;;;;;18.23;10.98;;;19.90;53.80;;;;;;4091155;28;20104;-63
2022/01/16 11:59:25;;;;;;;19.25;9.45;;;19.90;53.70;;;;;;4091832;28;20503;-63
2022/01/16 12:01:49;;;;;;;19.58;10.13;;;20.00;53.80;;;;;;4091528;28;20050;-63
2022/01/16 12:04:45;;;;;;;18.83;9.70;;;20.00;53.80;;;;;;4091816;28;20109;-63
2022/01/16 12:07:45;;;;;;;17.88;10.02;;;20.00;53.70;;;;;;4091094;28;20130;-63
2022/01/16 12:10:10;;;;;;;21.63;10.13;;;20.00;53.80;;;;;;4090197;28;20110;-63
2022/01/16 12:12:36;;;;;;;17.52;9.35;;;19.90;53.90;;;;;;4091980;28;20051;-63
2022/01/16 12:15:01;;;;;;;19.35;9.52;;;19.80;53.90;;;;;;4091536;28;20079;-63
2022/01/16 12:17:28;;;;;;;17.15;9.48;;;19.80;54.10;;;;;;4091310;28;20051;-63
2022/01/16 12:19:52;;;;;;;16.33;8.93;;;19.80;54.40;;;;;;4091656;28;20051;-63
2022/01/16 12:22:40;;;;;;;19.73;9.32;;;19.70;54.50;;;;;;4091203;28;20047;-64
2022/01/16 12:25:08;;;;;;;14.88;9.27;;;19.70;54.50;;;;;;4090507;28;20047;-64
2022/01/16 12:27:44;;;;;;;19.10;8.63;;;19.70;54.50;;;;;;4090408;28;20073;-63
2022/01/16 12:30:35;;;;;;;14.50;8.48;;;19.70;54.50;;;;;;4093970;28;20908;-68
2022/01/16 12:33:08;;;;;;;14.50;8.77;;;19.70;54.50;;;;;;4093661;28;20043;-64
2022/01/16 12:36:11;;;;;;;21.10;9.15;;;19.70;54.50;;;;;;4093641;28;20748;-64
2022/01/16 12:38:37;;;;;;;15.75;7.97;;;19.70;54.80;;;;;;4093775;28;20051;-64
2022/01/16 12:41:05;;;;;;;14.88;7.85;;;19.60;55.60;;;;;;4094504;28;20051;-64
2022/01/16 12:43:33;;;;;;;11.23;7.03;;;19.50;55.10;;;;;;4094327;28;20058;-63
2022/01/16 12:45:56;;;;;;;18.70;7.82;;;19.50;55.30;;;;;;4094840;28;20448;-64
2022/01/16 12:48:20;;;;;;;16.02;7.28;;;19.40;55.40;;;;;;4094386;28;20554;-63
2022/01/16 12:50:42;;;;;;;14.23;6.70;;;19.40;55.60;;;;;;4094134;28;20055;-63
2022/01/16 12:53:06;;;;;;;16.00;5.88;;;19.40;55.60;;;;;;4094578;28;20047;-64